sensor_id;sensor_type;location;lat;lon;timestamp;temperature;humidity
34406;DHT22;20658;45.630;8.886;2022-12-10T00:00:23;3.60;99.90
34406;DHT22;20658;45.630;8.886;2022-12-10T00:02:52;3.60;99.90
34406;DHT22;20658;45.630;8.886;2022-12-10T00:05:22;3.50;99.90
34406;DHT22;20658;45.630;8.886;2022-12-10T00:07:51;3.50;99.90
34406;DHT22;20658;45.630;8.886;2022-12-10T00:10:25;3.40;99.90
34406;DHT22;20658;45.630;8.886;2022-12-10T00:12:53;3.50;99.90
34406;DHT22;20658;45.630;8.886;2022-12-10T00:15:28;3.70;99.90
34406;DHT22;20658;45.630;8.886;2022-12-10T00:17:57;3.40;99.90
34406;DHT22;20658;45.630;8.886;2022-12-10T00:20:25;3.40;99.90
34406;DHT22;20658;45.630;8.886;2022-12-10T00:22:54;3.40;99.90
34406;DHT22;20658;45.630;8.886;2022-12-10T00:25:27;3.30;99.90
34406;DHT22;20658;45.630;8.886;2022-12-10T00:27:56;3.40;99.90
34406;DHT22;20658;45.630;8.886;2022-12-10T00:30:25;3.30;99.90
34406;DHT22;20658;45.630;8.886;2022-12-10T00:32:55;3.40;99.90
34406;DHT22;20658;45.630;8.886;2022-12-10T00:35:24;3.40;99.90
34406;DHT22;20658;45.630;8.886;2022-12-10T00:37:57;3.40;99.90
34406;DHT22;20658;45.630;8.886;2022-12-10T00:40:26;3.40;99.90
34406;DHT22;20658;45.630;8.886;2022-12-10T00:42:55;3.30;99.90
34406;DHT22;20658;45.630;8.886;2022-12-10T00:45:23;3.30;99.90
34406;DHT22;20658;45.630;8.886;2022-12-10T00:47:52;3.30;99.90
34406;DHT22;20658;45.630;8.886;2022-12-10T00:50:22;3.30;99.90
34406;DHT22;20658;45.630;8.886;2022-12-10T00:52:50;3.30;99.90
34406;DHT22;20658;45.630;8.886;2022-12-10T00:55:19;3.20;99.90
34406;DHT22;20658;45.630;8.886;2022-12-10T00:57:48;3.20;99.90
34406;DHT22;20658;45.630;8.886;2022-12-10T01:00:17;3.20;99.90
34406;DHT22;20658;45.630;8.886;2022-12-10T01:02:45;3.30;99.90
34406;DHT22;20658;45.630;8.886;2022-12-10T01:05:16;3.30;99.90
34406;DHT22;20658;45.630;8.886;2022-12-10T01:07:46;3.30;99.90
34406;DHT22;20658;45.630;8.886;2022-12-10T01:10:16;3.30;99.90
34406;DHT22;20658;45.630;8.886;2022-12-10T01:12:44;3.20;99.90
34406;DHT22;20658;45.630;8.886;2022-12-10T01:15:13;3.20;99.90
34406;DHT22;20658;45.630;8.886;2022-12-10T01:17:43;3.60;99.90
34406;DHT22;20658;45.630;8.886;2022-12-10T01:20:13;3.30;99.90
34406;DHT22;20658;45.630;8.886;2022-12-10T01:22:42;3.10;99.90
34406;DHT22;20658;45.630;8.886;2022-12-10T01:25:11;3.10;99.90
34406;DHT22;20658;45.630;8.886;2022-12-10T01:27:40;3.10;99.90
34406;DHT22;20658;45.630;8.886;2022-12-10T01:30:10;3.10;99.90
34406;DHT22;20658;45.630;8.886;2022-12-10T01:32:39;3.10;99.90
34406;DHT22;20658;45.630;8.886;2022-12-10T01:35:08;3.10;99.90
34406;DHT22;20658;45.630;8.886;2022-12-10T01:37:36;3.10;99.90
34406;DHT22;20658;45.630;8.886;2022-12-10T01:40:06;3.10;99.90
34406;DHT22;20658;45.630;8.886;2022-12-10T01:42:37;3.10;99.90
34406;DHT22;20658;45.630;8.886;2022-12-10T01:45:10;3.40;99.90
34406;DHT22;20658;45.630;8.886;2022-12-10T01:47:40;3.20;99.90
34406;DHT22;20658;45.630;8.886;2022-12-10T01:50:14;3.20;99.90
34406;DHT22;20658;45.630;8.886;2022-12-10T01:52:48;3.20;99.90
34406;DHT22;20658;45.630;8.886;2022-12-10T01:55:46;3.30;99.90
34406;DHT22;20658;45.630;8.886;2022-12-10T01:58:18;3.30;99.90
34406;DHT22;20658;45.630;8.886;2022-12-10T02:00:57;3.60;99.90
34406;DHT22;20658;45.630;8.886;2022-12-10T02:03:40;3.30;99.90
34406;DHT22;20658;45.630;8.886;2022-12-10T02:06:27;3.30;99.90
34406;DHT22;20658;45.630;8.886;2022-12-10T02:09:07;3.30;99.90
34406;DHT22;20658;45.630;8.886;2022-12-10T02:11:44;3.30;99.90
34406;DHT22;20658;45.630;8.886;2022-12-10T02:14:21;3.20;99.90
34406;DHT22;20658;45.630;8.886;2022-12-10T02:16:57;3.20;99.90
34406;DHT22;20658;45.630;8.886;2022-12-10T02:19:41;3.40;99.90
34406;DHT22;20658;45.630;8.886;2022-12-10T02:22:31;3.20;99.90
34406;DHT22;20658;45.630;8.886;2022-12-10T02:25:02;3.20;99.90
34406;DHT22;20658;45.630;8.886;2022-12-10T02:27:40;3.20;99.90
34406;DHT22;20658;45.630;8.886;2022-12-10T02:30:14;3.20;99.90
34406;DHT22;20658;45.630;8.886;2022-12-10T02:32:44;3.20;99.90
34406;DHT22;20658;45.630;8.886;2022-12-10T02:35:18;3.20;99.90
34406;DHT22;20658;45.630;8.886;2022-12-10T02:37:56;3.40;99.90
34406;DHT22;20658;45.630;8.886;2022-12-10T02:40:36;3.70;99.90
34406;DHT22;20658;45.630;8.886;2022-12-10T02:43:09;3.20;99.90
34406;DHT22;20658;45.630;8.886;2022-12-10T02:45:42;3.20;99.90
34406;DHT22;20658;45.630;8.886;2022-12-10T02:48:17;3.20;99.90
34406;DHT22;20658;45.630;8.886;2022-12-10T02:50:46;3.30;99.90
34406;DHT22;20658;45.630;8.886;2022-12-10T02:53:20;3.30;99.90
34406;DHT22;20658;45.630;8.886;2022-12-10T02:55:58;3.30;99.90
34406;DHT22;20658;45.630;8.886;2022-12-10T02:58:45;3.20;99.90
34406;DHT22;20658;45.630;8.886;2022-12-10T03:01:25;3.30;99.90
34406;DHT22;20658;45.630;8.886;2022-12-10T03:04:01;3.30;99.90
34406;DHT22;20658;45.630;8.886;2022-12-10T03:06:40;3.30;99.90
34406;DHT22;20658;45.630;8.886;2022-12-10T03:09:15;3.30;99.90
34406;DHT22;20658;45.630;8.886;2022-12-10T03:11:46;3.30;99.90
34406;DHT22;20658;45.630;8.886;2022-12-10T03:14:26;3.30;99.90
34406;DHT22;20658;45.630;8.886;2022-12-10T03:17:03;3.30;99.90
34406;DHT22;20658;45.630;8.886;2022-12-10T03:19:35;3.40;99.90
34406;DHT22;20658;45.630;8.886;2022-12-10T03:22:13;3.30;99.90
34406;DHT22;20658;45.630;8.886;2022-12-10T03:24:47;3.80;99.90
34406;DHT22;20658;45.630;8.886;2022-12-10T03:27:23;3.40;99.90
34406;DHT22;20658;45.630;8.886;2022-12-10T03:29:55;3.40;99.90
34406;DHT22;20658;45.630;8.886;2022-12-10T03:32:27;3.30;99.90
34406;DHT22;20658;45.630;8.886;2022-12-10T03:34:58;3.30;99.90
34406;DHT22;20658;45.630;8.886;2022-12-10T03:37:28;3.60;99.90
34406;DHT22;20658;45.630;8.886;2022-12-10T03:39:58;3.40;99.90
34406;DHT22;20658;45.630;8.886;2022-12-10T03:42:27;3.60;99.90
34406;DHT22;20658;45.630;8.886;2022-12-10T03:44:55;3.30;99.90
34406;DHT22;20658;45.630;8.886;2022-12-10T03:47:25;3.30;99.90
34406;DHT22;20658;45.630;8.886;2022-12-10T03:49:59;3.30;99.90
34406;DHT22;20658;45.630;8.886;2022-12-10T03:52:27;3.30;99.90
34406;DHT22;20658;45.630;8.886;2022-12-10T03:54:56;3.20;99.90
34406;DHT22;20658;45.630;8.886;2022-12-10T03:57:24;3.20;99.90
34406;DHT22;20658;45.630;8.886;2022-12-10T03:59:53;3.20;99.90
34406;DHT22;20658;45.630;8.886;2022-12-10T04:02:21;3.20;99.90
34406;DHT22;20658;45.630;8.886;2022-12-10T04:04:51;3.20;99.90
34406;DHT22;20658;45.630;8.886;2022-12-10T04:07:19;3.20;99.90
34406;DHT22;20658;45.630;8.886;2022-12-10T04:09:48;3.20;99.90
34406;DHT22;20658;45.630;8.886;2022-12-10T04:12:17;3.20;99.90
34406;DHT22;20658;45.630;8.886;2022-12-10T04:14:50;3.20;99.90
34406;DHT22;20658;45.630;8.886;2022-12-10T04:17:41;3.20;99.90
34406;DHT22;20658;45.630;8.886;2022-12-10T04:20:16;3.20;99.90
34406;DHT22;20658;45.630;8.886;2022-12-10T04:23:01;3.20;99.90
34406;DHT22;20658;45.630;8.886;2022-12-10T04:25:48;3.20;99.90
34406;DHT22;20658;45.630;8.886;2022-12-10T04:28:39;3.20;99.90
34406;DHT22;20658;45.630;8.886;2022-12-10T04:31:07;3.20;99.90
34406;DHT22;20658;45.630;8.886;2022-12-10T04:33:37;3.20;99.90
34406;DHT22;20658;45.630;8.886;2022-12-10T04:36:07;3.20;99.90
34406;DHT22;20658;45.630;8.886;2022-12-10T04:38:36;3.20;99.90
34406;DHT22;20658;45.630;8.886;2022-12-10T04:41:05;3.60;99.90
34406;DHT22;20658;45.630;8.886;2022-12-10T04:43:42;3.20;99.90
34406;DHT22;20658;45.630;8.886;2022-12-10T04:46:10;3.20;99.90
34406;DHT22;20658;45.630;8.886;2022-12-10T04:48:44;3.10;99.90
34406;DHT22;20658;45.630;8.886;2022-12-10T04:51:14;3.10;99.90
34406;DHT22;20658;45.630;8.886;2022-12-10T04:53:47;3.10;99.90
34406;DHT22;20658;45.630;8.886;2022-12-10T04:56:20;3.10;99.90
34406;DHT22;20658;45.630;8.886;2022-12-10T04:58:55;3.10;99.90
34406;DHT22;20658;45.630;8.886;2022-12-10T05:01:29;3.20;99.90
34406;DHT22;20658;45.630;8.886;2022-12-10T05:03:59;3.20;99.90
34406;DHT22;20658;45.630;8.886;2022-12-10T05:06:35;3.60;99.90
34406;DHT22;20658;45.630;8.886;2022-12-10T05:09:10;3.20;99.90
34406;DHT22;20658;45.630;8.886;2022-12-10T05:11:39;3.40;99.90
34406;DHT22;20658;45.630;8.886;2022-12-10T05:14:14;3.10;99.90
34406;DHT22;20658;45.630;8.886;2022-12-10T05:16:49;3.10;99.90
34406;DHT22;20658;45.630;8.886;2022-12-10T05:19:19;3.00;99.90
34406;DHT22;20658;45.630;8.886;2022-12-10T05:21:50;3.00;99.90
34406;DHT22;20658;45.630;8.886;2022-12-10T05:24:41;3.10;99.90
34406;DHT22;20658;45.630;8.886;2022-12-10T05:27:09;3.10;99.90
34406;DHT22;20658;45.630;8.886;2022-12-10T05:29:43;3.10;99.90
34406;DHT22;20658;45.630;8.886;2022-12-10T05:32:16;3.10;99.90
34406;DHT22;20658;45.630;8.886;2022-12-10T05:34:50;3.10;99.90
34406;DHT22;20658;45.630;8.886;2022-12-10T05:37:24;3.10;99.90
34406;DHT22;20658;45.630;8.886;2022-12-10T05:39:58;3.10;99.90
34406;DHT22;20658;45.630;8.886;2022-12-10T05:42:31;3.10;99.90
34406;DHT22;20658;45.630;8.886;2022-12-10T05:45:06;3.40;99.90
34406;DHT22;20658;45.630;8.886;2022-12-10T05:47:40;3.20;99.90
34406;DHT22;20658;45.630;8.886;2022-12-10T05:50:14;3.20;99.90
34406;DHT22;20658;45.630;8.886;2022-12-10T05:52:50;3.20;99.90
34406;DHT22;20658;45.630;8.886;2022-12-10T05:55:23;3.20;99.90
34406;DHT22;20658;45.630;8.886;2022-12-10T05:57:53;3.20;99.90
34406;DHT22;20658;45.630;8.886;2022-12-10T06:00:27;3.30;99.90
34406;DHT22;20658;45.630;8.886;2022-12-10T06:03:00;3.60;99.90
34406;DHT22;20658;45.630;8.886;2022-12-10T06:05:36;3.30;99.90
34406;DHT22;20658;45.630;8.886;2022-12-10T06:08:11;3.70;99.90
34406;DHT22;20658;45.630;8.886;2022-12-10T06:10:45;3.30;99.90
34406;DHT22;20658;45.630;8.886;2022-12-10T06:13:18;3.30;99.90
34406;DHT22;20658;45.630;8.886;2022-12-10T06:15:52;3.30;99.90
34406;DHT22;20658;45.630;8.886;2022-12-10T06:18:25;3.30;99.90
34406;DHT22;20658;45.630;8.886;2022-12-10T06:20:59;3.30;99.90
34406;DHT22;20658;45.630;8.886;2022-12-10T06:23:37;3.40;99.90
34406;DHT22;20658;45.630;8.886;2022-12-10T06:26:13;3.40;99.90
34406;DHT22;20658;45.630;8.886;2022-12-10T06:28:48;3.40;99.90
34406;DHT22;20658;45.630;8.886;2022-12-10T06:31:22;3.50;99.90
34406;DHT22;20658;45.630;8.886;2022-12-10T06:33:56;3.40;99.90
34406;DHT22;20658;45.630;8.886;2022-12-10T06:36:30;3.40;99.90
34406;DHT22;20658;45.630;8.886;2022-12-10T06:39:05;3.40;99.90
34406;DHT22;20658;45.630;8.886;2022-12-10T06:41:38;3.40;99.90
34406;DHT22;20658;45.630;8.886;2022-12-10T06:44:10;3.50;99.90
34406;DHT22;20658;45.630;8.886;2022-12-10T06:46:43;3.40;99.90
34406;DHT22;20658;45.630;8.886;2022-12-10T06:49:17;3.40;99.90
34406;DHT22;20658;45.630;8.886;2022-12-10T06:51:47;3.50;99.90
34406;DHT22;20658;45.630;8.886;2022-12-10T06:54:22;3.50;99.90
34406;DHT22;20658;45.630;8.886;2022-12-10T06:56:55;3.40;99.90
34406;DHT22;20658;45.630;8.886;2022-12-10T06:59:29;3.60;99.90
34406;DHT22;20658;45.630;8.886;2022-12-10T07:02:02;3.50;99.90
34406;DHT22;20658;45.630;8.886;2022-12-10T07:04:35;3.50;99.90
34406;DHT22;20658;45.630;8.886;2022-12-10T07:07:09;3.50;99.90
34406;DHT22;20658;45.630;8.886;2022-12-10T07:09:44;3.50;99.90
34406;DHT22;20658;45.630;8.886;2022-12-10T07:12:17;3.50;99.90
34406;DHT22;20658;45.630;8.886;2022-12-10T07:14:50;3.60;99.90
34406;DHT22;20658;45.630;8.886;2022-12-10T07:17:24;3.60;99.90
34406;DHT22;20658;45.630;8.886;2022-12-10T07:19:58;3.60;99.90
34406;DHT22;20658;45.630;8.886;2022-12-10T07:22:32;3.60;99.90
34406;DHT22;20658;45.630;8.886;2022-12-10T07:25:08;3.60;99.90
34406;DHT22;20658;45.630;8.886;2022-12-10T07:27:41;3.60;99.90
34406;DHT22;20658;45.630;8.886;2022-12-10T07:30:14;3.70;99.90
34406;DHT22;20658;45.630;8.886;2022-12-10T07:32:43;3.70;99.90
34406;DHT22;20658;45.630;8.886;2022-12-10T07:35:16;3.60;99.90
34406;DHT22;20658;45.630;8.886;2022-12-10T07:37:50;3.70;99.90
34406;DHT22;20658;45.630;8.886;2022-12-10T07:40:24;4.00;99.90
34406;DHT22;20658;45.630;8.886;2022-12-10T07:42:57;3.90;99.90
34406;DHT22;20658;45.630;8.886;2022-12-10T07:45:31;3.60;99.90
34406;DHT22;20658;45.630;8.886;2022-12-10T07:48:05;3.60;99.90
34406;DHT22;20658;45.630;8.886;2022-12-10T07:50:39;3.70;99.90
34406;DHT22;20658;45.630;8.886;2022-12-10T07:53:12;3.60;99.90
34406;DHT22;20658;45.630;8.886;2022-12-10T07:55:47;3.70;99.90
34406;DHT22;20658;45.630;8.886;2022-12-10T07:58:20;3.70;99.90
34406;DHT22;20658;45.630;8.886;2022-12-10T08:00:53;3.70;99.90
34406;DHT22;20658;45.630;8.886;2022-12-10T08:03:27;3.70;99.90
34406;DHT22;20658;45.630;8.886;2022-12-10T08:06:01;3.70;99.90
34406;DHT22;20658;45.630;8.886;2022-12-10T08:08:36;3.80;99.90
34406;DHT22;20658;45.630;8.886;2022-12-10T08:11:12;3.70;99.90
34406;DHT22;20658;45.630;8.886;2022-12-10T08:13:42;3.80;99.90
34406;DHT22;20658;45.630;8.886;2022-12-10T08:16:18;3.80;99.90
34406;DHT22;20658;45.630;8.886;2022-12-10T08:18:52;3.90;99.90
34406;DHT22;20658;45.630;8.886;2022-12-10T08:21:27;3.90;99.90
34406;DHT22;20658;45.630;8.886;2022-12-10T08:24:02;3.90;99.90
34406;DHT22;20658;45.630;8.886;2022-12-10T08:26:37;3.90;99.90
34406;DHT22;20658;45.630;8.886;2022-12-10T08:29:10;4.10;99.90
34406;DHT22;20658;45.630;8.886;2022-12-10T08:31:44;4.00;99.90
34406;DHT22;20658;45.630;8.886;2022-12-10T08:34:18;4.00;99.90
34406;DHT22;20658;45.630;8.886;2022-12-10T08:36:51;4.30;99.90
34406;DHT22;20658;45.630;8.886;2022-12-10T08:39:20;4.50;99.90
34406;DHT22;20658;45.630;8.886;2022-12-10T08:41:54;4.10;99.90
34406;DHT22;20658;45.630;8.886;2022-12-10T08:44:33;4.20;99.90
34406;DHT22;20658;45.630;8.886;2022-12-10T08:47:18;4.20;99.90
34406;DHT22;20658;45.630;8.886;2022-12-10T08:49:52;4.30;99.90
34406;DHT22;20658;45.630;8.886;2022-12-10T08:52:25;4.40;99.90
34406;DHT22;20658;45.630;8.886;2022-12-10T08:55:00;4.50;99.90
34406;DHT22;20658;45.630;8.886;2022-12-10T08:57:35;4.40;99.90
34406;DHT22;20658;45.630;8.886;2022-12-10T09:00:10;4.40;99.90
34406;DHT22;20658;45.630;8.886;2022-12-10T09:02:45;4.50;99.90
34406;DHT22;20658;45.630;8.886;2022-12-10T09:05:14;4.50;99.90
34406;DHT22;20658;45.630;8.886;2022-12-10T09:07:47;4.50;99.90
34406;DHT22;20658;45.630;8.886;2022-12-10T09:10:21;4.50;99.90
34406;DHT22;20658;45.630;8.886;2022-12-10T09:12:56;4.60;99.90
34406;DHT22;20658;45.630;8.886;2022-12-10T09:15:31;4.60;99.90
34406;DHT22;20658;45.630;8.886;2022-12-10T09:18:00;4.60;99.90
34406;DHT22;20658;45.630;8.886;2022-12-10T09:20:33;4.60;99.90
34406;DHT22;20658;45.630;8.886;2022-12-10T09:23:02;4.60;99.90
34406;DHT22;20658;45.630;8.886;2022-12-10T09:25:35;4.60;99.90
34406;DHT22;20658;45.630;8.886;2022-12-10T09:28:10;4.60;99.90
34406;DHT22;20658;45.630;8.886;2022-12-10T09:30:43;5.00;99.90
34406;DHT22;20658;45.630;8.886;2022-12-10T09:33:16;4.80;99.90
34406;DHT22;20658;45.630;8.886;2022-12-10T09:35:50;4.80;99.90
34406;DHT22;20658;45.630;8.886;2022-12-10T09:38:20;4.80;99.90
34406;DHT22;20658;45.630;8.886;2022-12-10T09:40:54;4.90;99.90
34406;DHT22;20658;45.630;8.886;2022-12-10T09:43:38;5.10;99.90
34406;DHT22;20658;45.630;8.886;2022-12-10T09:46:23;5.30;99.90
34406;DHT22;20658;45.630;8.886;2022-12-10T09:49:06;5.50;99.90
34406;DHT22;20658;45.630;8.886;2022-12-10T09:51:41;5.50;99.90
34406;DHT22;20658;45.630;8.886;2022-12-10T09:54:19;5.70;99.90
34406;DHT22;20658;45.630;8.886;2022-12-10T09:57:04;5.80;99.90
34406;DHT22;20658;45.630;8.886;2022-12-10T09:59:43;5.80;99.90
34406;DHT22;20658;45.630;8.886;2022-12-10T10:02:22;5.90;99.90
34406;DHT22;20658;45.630;8.886;2022-12-10T10:05:10;5.90;99.90
34406;DHT22;20658;45.630;8.886;2022-12-10T10:07:48;5.90;99.90
34406;DHT22;20658;45.630;8.886;2022-12-10T10:10:25;6.00;99.90
34406;DHT22;20658;45.630;8.886;2022-12-10T10:13:11;6.10;99.90
34406;DHT22;20658;45.630;8.886;2022-12-10T10:15:49;6.20;99.90
34406;DHT22;20658;45.630;8.886;2022-12-10T10:18:30;6.40;99.90
34406;DHT22;20658;45.630;8.886;2022-12-10T10:21:16;6.30;99.90
34406;DHT22;20658;45.630;8.886;2022-12-10T10:23:49;6.40;99.90
34406;DHT22;20658;45.630;8.886;2022-12-10T10:26:24;6.50;99.90
34406;DHT22;20658;45.630;8.886;2022-12-10T10:29:01;6.60;99.90
34406;DHT22;20658;45.630;8.886;2022-12-10T10:31:39;6.80;99.90
34406;DHT22;20658;45.630;8.886;2022-12-10T10:34:17;6.80;99.90
34406;DHT22;20658;45.630;8.886;2022-12-10T10:36:56;6.80;99.90
34406;DHT22;20658;45.630;8.886;2022-12-10T10:39:31;6.80;99.90
34406;DHT22;20658;45.630;8.886;2022-12-10T10:42:08;6.90;99.90
34406;DHT22;20658;45.630;8.886;2022-12-10T10:44:42;6.80;99.90
34406;DHT22;20658;45.630;8.886;2022-12-10T10:47:29;6.90;99.90
34406;DHT22;20658;45.630;8.886;2022-12-10T10:50:04;7.00;99.90
34406;DHT22;20658;45.630;8.886;2022-12-10T10:52:41;6.90;99.90
34406;DHT22;20658;45.630;8.886;2022-12-10T10:55:30;6.90;99.90
34406;DHT22;20658;45.630;8.886;2022-12-10T10:58:17;6.90;99.90
34406;DHT22;20658;45.630;8.886;2022-12-10T11:00:57;7.00;99.90
34406;DHT22;20658;45.630;8.886;2022-12-10T11:03:35;7.00;99.90
34406;DHT22;20658;45.630;8.886;2022-12-10T11:06:09;7.10;99.90
34406;DHT22;20658;45.630;8.886;2022-12-10T11:08:46;7.30;99.90
34406;DHT22;20658;45.630;8.886;2022-12-10T11:11:22;7.40;99.90
34406;DHT22;20658;45.630;8.886;2022-12-10T11:14:23;7.50;99.90
34406;DHT22;20658;45.630;8.886;2022-12-10T11:17:08;7.50;99.90
34406;DHT22;20658;45.630;8.886;2022-12-10T11:19:56;7.70;99.90
34406;DHT22;20658;45.630;8.886;2022-12-10T11:22:32;7.70;99.90
34406;DHT22;20658;45.630;8.886;2022-12-10T11:25:11;7.70;99.90
34406;DHT22;20658;45.630;8.886;2022-12-10T11:27:50;7.70;99.90
34406;DHT22;20658;45.630;8.886;2022-12-10T11:30:32;8.30;99.90
34406;DHT22;20658;45.630;8.886;2022-12-10T11:33:20;8.00;99.90
34406;DHT22;20658;45.630;8.886;2022-12-10T11:36:06;7.90;99.90
34406;DHT22;20658;45.630;8.886;2022-12-10T11:38:46;8.00;99.90
34406;DHT22;20658;45.630;8.886;2022-12-10T11:41:32;8.10;99.90
34406;DHT22;20658;45.630;8.886;2022-12-10T11:44:19;8.00;99.90
34406;DHT22;20658;45.630;8.886;2022-12-10T11:47:04;7.80;99.90
34406;DHT22;20658;45.630;8.886;2022-12-10T11:50:15;7.70;99.90
34406;DHT22;20658;45.630;8.886;2022-12-10T11:53:32;7.70;99.90
34406;DHT22;20658;45.630;8.886;2022-12-10T11:56:20;7.70;99.90
34406;DHT22;20658;45.630;8.886;2022-12-10T11:59:08;7.70;99.90
34406;DHT22;20658;45.630;8.886;2022-12-10T12:01:58;7.80;99.90
34406;DHT22;20658;45.630;8.886;2022-12-10T12:04:51;7.70;99.90
34406;DHT22;20658;45.630;8.886;2022-12-10T12:07:38;7.80;99.90
34406;DHT22;20658;45.630;8.886;2022-12-10T12:10:39;7.80;99.90
34406;DHT22;20658;45.630;8.886;2022-12-10T12:13:22;7.80;99.90
34406;DHT22;20658;45.630;8.886;2022-12-10T12:15:59;7.90;99.90
34406;DHT22;20658;45.630;8.886;2022-12-10T12:18:41;7.80;99.80
34406;DHT22;20658;45.630;8.886;2022-12-10T12:21:17;7.70;99.90
34406;DHT22;20658;45.630;8.886;2022-12-10T12:23:54;7.70;99.90
34406;DHT22;20658;45.630;8.886;2022-12-10T12:26:35;7.80;99.90
34406;DHT22;20658;45.630;8.886;2022-12-10T12:29:14;8.20;99.90
34406;DHT22;20658;45.630;8.886;2022-12-10T12:31:57;8.00;99.90
34406;DHT22;20658;45.630;8.886;2022-12-10T12:34:43;7.90;99.20
34406;DHT22;20658;45.630;8.886;2022-12-10T12:37:24;7.90;99.90
34406;DHT22;20658;45.630;8.886;2022-12-10T12:40:07;7.90;99.90
34406;DHT22;20658;45.630;8.886;2022-12-10T12:42:49;7.90;99.90
34406;DHT22;20658;45.630;8.886;2022-12-10T12:45:33;7.90;99.90
34406;DHT22;20658;45.630;8.886;2022-12-10T12:48:16;7.80;99.90
34406;DHT22;20658;45.630;8.886;2022-12-10T12:50:57;7.70;99.90
34406;DHT22;20658;45.630;8.886;2022-12-10T12:53:36;7.70;99.90
34406;DHT22;20658;45.630;8.886;2022-12-10T12:56:20;7.80;99.90
34406;DHT22;20658;45.630;8.886;2022-12-10T12:59:05;7.70;99.90
34406;DHT22;20658;45.630;8.886;2022-12-10T13:01:50;7.50;99.90
34406;DHT22;20658;45.630;8.886;2022-12-10T13:04:27;7.90;99.90
34406;DHT22;20658;45.630;8.886;2022-12-10T13:07:29;7.70;99.90
34406;DHT22;20658;45.630;8.886;2022-12-10T13:10:27;7.70;99.90
34406;DHT22;20658;45.630;8.886;2022-12-10T13:13:23;7.90;99.90
34406;DHT22;20658;45.630;8.886;2022-12-10T13:19:29;7.90;99.90
34406;DHT22;20658;45.630;8.886;2022-12-10T13:22:08;7.90;99.90
34406;DHT22;20658;45.630;8.886;2022-12-10T13:25:05;7.80;99.90
34406;DHT22;20658;45.630;8.886;2022-12-10T13:27:55;7.80;99.90
34406;DHT22;20658;45.630;8.886;2022-12-10T13:30:34;7.70;99.90
34406;DHT22;20658;45.630;8.886;2022-12-10T13:33:18;7.90;99.90
34406;DHT22;20658;45.630;8.886;2022-12-10T13:35:57;7.90;99.90
34406;DHT22;20658;45.630;8.886;2022-12-10T13:38:40;8.00;99.90
34406;DHT22;20658;45.630;8.886;2022-12-10T13:41:09;7.90;99.90
34406;DHT22;20658;45.630;8.886;2022-12-10T13:44:00;8.00;99.90
34406;DHT22;20658;45.630;8.886;2022-12-10T13:46:57;8.00;99.90
34406;DHT22;20658;45.630;8.886;2022-12-10T13:49:45;8.00;99.90
34406;DHT22;20658;45.630;8.886;2022-12-10T13:52:26;7.90;99.90
34406;DHT22;20658;45.630;8.886;2022-12-10T13:55:22;8.00;99.90
34406;DHT22;20658;45.630;8.886;2022-12-10T13:58:27;7.90;99.90
34406;DHT22;20658;45.630;8.886;2022-12-10T14:01:13;7.80;99.90
34406;DHT22;20658;45.630;8.886;2022-12-10T14:04:13;7.70;99.90
34406;DHT22;20658;45.630;8.886;2022-12-10T14:06:55;7.60;99.90
34406;DHT22;20658;45.630;8.886;2022-12-10T14:09:30;7.60;99.90
34406;DHT22;20658;45.630;8.886;2022-12-10T14:12:13;7.70;99.90
34406;DHT22;20658;45.630;8.886;2022-12-10T14:14:52;7.30;99.90
34406;DHT22;20658;45.630;8.886;2022-12-10T14:17:32;7.00;99.90
34406;DHT22;20658;45.630;8.886;2022-12-10T14:20:13;7.00;99.90
34406;DHT22;20658;45.630;8.886;2022-12-10T14:22:51;7.00;99.90
34406;DHT22;20658;45.630;8.886;2022-12-10T14:25:25;7.10;99.90
34406;DHT22;20658;45.630;8.886;2022-12-10T14:27:59;6.90;99.90
34406;DHT22;20658;45.630;8.886;2022-12-10T14:30:32;6.90;99.90
34406;DHT22;20658;45.630;8.886;2022-12-10T14:33:07;6.90;99.90
34406;DHT22;20658;45.630;8.886;2022-12-10T14:35:46;6.90;99.90
34406;DHT22;20658;45.630;8.886;2022-12-10T14:38:27;6.80;99.90
34406;DHT22;20658;45.630;8.886;2022-12-10T14:41:02;6.70;99.90
34406;DHT22;20658;45.630;8.886;2022-12-10T14:43:38;6.70;99.90
34406;DHT22;20658;45.630;8.886;2022-12-10T14:46:14;6.60;99.90
34406;DHT22;20658;45.630;8.886;2022-12-10T14:48:54;6.50;99.90
34406;DHT22;20658;45.630;8.886;2022-12-10T14:51:33;6.40;99.90
34406;DHT22;20658;45.630;8.886;2022-12-10T14:54:23;6.40;99.90
34406;DHT22;20658;45.630;8.886;2022-12-10T14:57:01;6.40;99.90
34406;DHT22;20658;45.630;8.886;2022-12-10T14:59:39;6.30;99.90
34406;DHT22;20658;45.630;8.886;2022-12-10T15:02:18;6.20;99.90
34406;DHT22;20658;45.630;8.886;2022-12-10T15:04:55;6.20;99.90
34406;DHT22;20658;45.630;8.886;2022-12-10T15:07:32;6.10;99.90
34406;DHT22;20658;45.630;8.886;2022-12-10T15:10:17;6.10;99.90
34406;DHT22;20658;45.630;8.886;2022-12-10T15:12:53;6.00;99.90
34406;DHT22;20658;45.630;8.886;2022-12-10T15:15:30;6.00;99.90
34406;DHT22;20658;45.630;8.886;2022-12-10T15:18:12;5.90;99.90
34406;DHT22;20658;45.630;8.886;2022-12-10T15:20:51;5.80;99.90
34406;DHT22;20658;45.630;8.886;2022-12-10T15:23:31;5.70;99.90
34406;DHT22;20658;45.630;8.886;2022-12-10T15:26:15;5.60;99.90
34406;DHT22;20658;45.630;8.886;2022-12-10T15:28:52;5.50;99.90
34406;DHT22;20658;45.630;8.886;2022-12-10T15:31:38;5.40;99.90
34406;DHT22;20658;45.630;8.886;2022-12-10T15:34:13;5.40;99.90
34406;DHT22;20658;45.630;8.886;2022-12-10T15:36:49;5.30;99.90
34406;DHT22;20658;45.630;8.886;2022-12-10T15:39:26;5.20;99.90
34406;DHT22;20658;45.630;8.886;2022-12-10T15:41:58;5.10;99.90
34406;DHT22;20658;45.630;8.886;2022-12-10T15:44:34;5.00;99.90
34406;DHT22;20658;45.630;8.886;2022-12-10T15:47:16;5.00;99.90
34406;DHT22;20658;45.630;8.886;2022-12-10T15:49:52;4.90;99.90
34406;DHT22;20658;45.630;8.886;2022-12-10T15:52:28;4.80;99.90
34406;DHT22;20658;45.630;8.886;2022-12-10T15:55:03;4.70;99.90
34406;DHT22;20658;45.630;8.886;2022-12-10T15:57:38;4.70;99.90
34406;DHT22;20658;45.630;8.886;2022-12-10T16:00:18;4.60;99.90
34406;DHT22;20658;45.630;8.886;2022-12-10T16:02:54;4.60;99.90
34406;DHT22;20658;45.630;8.886;2022-12-10T16:05:30;4.50;99.90
34406;DHT22;20658;45.630;8.886;2022-12-10T16:08:11;4.50;99.90
34406;DHT22;20658;45.630;8.886;2022-12-10T16:10:51;4.40;99.90
34406;DHT22;20658;45.630;8.886;2022-12-10T16:13:29;4.30;99.90
34406;DHT22;20658;45.630;8.886;2022-12-10T16:16:04;4.40;99.90
34406;DHT22;20658;45.630;8.886;2022-12-10T16:18:38;4.10;99.90
34406;DHT22;20658;45.630;8.886;2022-12-10T16:21:12;4.00;99.90
34406;DHT22;20658;45.630;8.886;2022-12-10T16:23:45;4.00;99.90
34406;DHT22;20658;45.630;8.886;2022-12-10T16:26:21;3.90;99.90
34406;DHT22;20658;45.630;8.886;2022-12-10T16:28:56;3.80;99.90
34406;DHT22;20658;45.630;8.886;2022-12-10T16:31:29;3.90;99.90
34406;DHT22;20658;45.630;8.886;2022-12-10T16:34:03;3.80;99.90
34406;DHT22;20658;45.630;8.886;2022-12-10T16:36:31;3.80;99.90
34406;DHT22;20658;45.630;8.886;2022-12-10T16:39:05;3.70;99.90
34406;DHT22;20658;45.630;8.886;2022-12-10T16:41:39;3.70;99.90
34406;DHT22;20658;45.630;8.886;2022-12-10T16:44:13;3.80;99.90
34406;DHT22;20658;45.630;8.886;2022-12-10T16:46:47;3.80;99.90